Time;durP1;ratioP1;P1;durP2;ratioP2;P2;SDS_P1;SDS_P2;PMS_P1;PMS_P2;Temp;Humidity;BMP_temperature;BMP_pressure;BME280_temperature;BME280_humidity;BME280_pressure;Samples;Min_cycle;Max_cycle;Signal;HPM_P1;HPM_P2
2023/01/29 00:00:50;;;;;;;0.70;0.70;;;3.10;99.90;;;;;;4796034;29;20088;-92
2023/01/29 00:03:22;;;;;;;0.70;0.70;;;3.10;99.90;;;;;;4781010;29;20742;-92
2023/01/29 00:05:51;;;;;;;0.80;0.80;;;3.10;99.90;;;;;;4791502;29;20078;-92
2023/01/29 00:08:17;;;;;;;0.80;0.80;;;3.10;99.90;;;;;;4791418;29;20049;-94
2023/01/29 00:10:47;;;;;;;0.80;0.80;;;3.10;99.90;;;;;;4803284;29;20382;-91
2023/01/29 00:13:19;;;;;;;0.80;0.80;;;3.10;99.90;;;;;;4802570;29;20166;-92
2023/01/29 00:16:25;;;;;;;0.80;0.80;;;3.20;99.90;;;;;;4782155;29;20049;-92
2023/01/29 00:19:22;;;;;;;0.80;0.80;;;3.10;99.90;;;;;;4739331;29;20354;-92
2023/01/29 00:21:58;;;;;;;0.80;0.80;;;3.10;99.90;;;;;;4824452;29;20064;-92
2023/01/29 00:24:35;;;;;;;0.80;0.80;;;3.10;99.90;;;;;;4802671;29;20332;-93
2023/01/29 00:27:09;;;;;;;0.80;0.80;;;3.10;99.90;;;;;;4774217;29;20057;-93
2023/01/29 00:30:30;;;;;;;;;;;;;;;;;;;;;
2023/01/29 00:32:59;;;;;;;0.80;0.80;;;3.10;99.90;;;;;;4820804;29;20109;-93
2023/01/29 00:35:44;;;;;;;0.70;0.70;;;3.10;99.90;;;;;;4800249;29;20105;-91
2023/01/29 00:38:29;;;;;;;0.80;0.80;;;3.10;99.90;;;;;;4799059;29;20052;-92
2023/01/29 00:49:59;;;;;;;0.80;0.80;;;3.20;99.90;;;;;;4820644;29;20222;-93
2023/01/29 00:53:03;;;;;;;;;;;;;;;;;;;;;
2023/01/29 00:55:38;;;;;;;;;;;3.20;99.90;;;;;;4803799;29;20067;-93
2023/01/29 00:58:33;;;;;;;0.70;0.70;;;3.10;99.90;;;;;;4811125;29;19980;-93
2023/01/29 01:01:18;;;;;;;;;;;;;;;;;;;;;
2023/01/29 01:15:30;;;;;;;0.70;0.70;;;3.20;99.90;;;;;;4781414;29;20054;-93
2023/01/29 01:18:21;;;;;;;0.73;0.73;;;3.20;99.90;;;;;;4788371;29;20061;-93
2023/01/29 01:21:15;;;;;;;0.85;0.85;;;3.30;99.90;;;;;;4782268;29;22060;-92
2023/01/29 01:27:24;;;;;;;;;;;;;;;;;;;;;
2023/01/29 01:30:58;;;;;;;0.80;0.80;;;3.20;99.90;;;;;;4817016;29;20084;-93
2023/01/29 01:34:02;;;;;;;0.80;0.80;;;3.20;99.90;;;;;;4738602;29;20081;-92
2023/01/29 01:39:30;;;;;;;0.80;0.80;;;3.20;99.90;;;;;;4738544;29;20535;-93
2023/01/29 01:41:59;;;;;;;;;;;3.20;99.90;;;;;;4776268;29;20053;-91
2023/01/29 01:55:00;;;;;;;0.80;0.80;;;3.20;99.90;;;;;;4751145;29;20186;-94
2023/01/29 01:57:57;;;;;;;0.80;0.80;;;3.20;99.90;;;;;;4718874;29;20526;-93
2023/01/29 02:09:52;;;;;;;0.70;0.70;;;3.20;99.90;;;;;;4715675;29;20059;-92
2023/01/29 02:12:30;;;;;;;0.70;0.70;;;3.20;99.90;;;;;;4704434;30;20090;-93
2023/01/29 02:15:37;;;;;;;;;;;;;;;;;;;;;
2023/01/29 02:18:38;;;;;;;0.77;0.77;;;3.20;99.90;;;;;;4707423;29;20063;-93
2023/01/29 02:21:39;;;;;;;0.70;0.70;;;3.10;99.90;;;;;;4733225;29;20616;-93
2023/01/29 02:24:44;;;;;;;0.70;0.70;;;3.20;99.90;;;;;;4730076;29;20120;-93
2023/01/29 02:27:58;;;;;;;;;;;;;;;;;;;;;
2023/01/29 02:34:07;;;;;;;0.77;0.77;;;3.10;99.90;;;;;;4789066;29;19983;-94
2023/01/29 02:47:58;;;;;;;0.80;0.80;;;3.20;99.90;;;;;;4635145;30;20052;-92
2023/01/29 02:54:07;;;;;;;0.80;0.80;;;3.20;99.90;;;;;;4612798;30;20085;-93
2023/01/29 02:57:06;;;;;;;0.70;0.70;;;3.20;99.90;;;;;;4595422;30;20933;-93
2023/01/29 02:59:35;;;;;;;;;;;3.10;99.90;;;;;;4568115;30;20106;-93
2023/01/29 03:02:12;;;;;;;0.70;0.70;;;3.20;99.90;;;;;;4572919;30;20320;-93
2023/01/29 03:16:03;;;;;;;;;;;;;;;;;;;;;
2023/01/29 03:19:18;;;;;;;0.70;0.70;;;3.20;99.90;;;;;;4587267;30;20066;-93
2023/01/29 03:22:07;;;;;;;0.75;0.75;;;3.20;99.90;;;;;;4630354;30;20061;-94
2023/01/29 03:35:13;;;;;;;;;;;3.30;99.90;;;;;;4627680;30;20438;-93
2023/01/29 03:38:01;;;;;;;0.80;0.80;;;3.30;99.90;;;;;;4627214;30;20396;-94
2023/01/29 03:41:18;;;;;;;0.70;0.70;;;3.30;99.90;;;;;;4655102;30;20847;-93
2023/01/29 03:44:23;;;;;;;0.80;0.80;;;3.30;99.90;;;;;;4604041;30;20077;-93
2023/01/29 03:51:41;;;;;;;;;;;;;;;;;;;;;
2023/01/29 03:55:12;;;;;;;0.80;0.80;;;3.30;99.90;;;;;;4755413;29;20243;-92
2023/01/29 03:58:31;;;;;;;0.70;0.70;;;3.20;99.90;;;;;;4704185;30;20513;-94
2023/01/29 04:01:34;;;;;;;0.88;0.88;;;3.30;99.90;;;;;;4719064;29;20068;-94
2023/01/29 04:04:13;;;;;;;0.70;0.70;;;3.20;99.90;;;;;;4726891;29;20059;-94
2023/01/29 04:06:43;;;;;;;0.70;0.70;;;3.30;99.90;;;;;;4754367;29;20057;-94
2023/01/29 04:09:23;;;;;;;0.80;0.80;;;3.30;99.90;;;;;;4793986;29;20191;-92
2023/01/29 04:19:36;;;;;;;0.80;0.80;;;3.30;99.90;;;;;;4756311;29;20050;-91
2023/01/29 04:22:20;;;;;;;0.80;0.80;;;3.30;99.90;;;;;;4725404;29;20203;-93
2023/01/29 04:25:31;;;;;;;0.90;0.90;;;3.40;99.90;;;;;;4742489;29;20565;-95
2023/01/29 04:28:38;;;;;;;0.70;0.70;;;3.40;99.90;;;;;;4695949;30;20162;-92
2023/01/29 04:31:11;;;;;;;0.70;0.70;;;3.50;99.90;;;;;;4761603;29;20344;-93
2023/01/29 04:34:28;;;;;;;0.70;0.70;;;3.50;99.90;;;;;;4784999;29;20605;-93
2023/01/29 04:37:09;;;;;;;0.70;0.70;;;3.50;99.90;;;;;;4763546;29;20061;-94
2023/01/29 04:44:08;;;;;;;;;;;;;;;;;;;;;
2023/01/29 04:47:37;;;;;;;0.70;0.70;;;3.50;99.90;;;;;;4780785;29;20138;-94
2023/01/29 04:50:23;;;;;;;0.70;0.70;;;3.50;99.90;;;;;;4816387;29;20507;-95
2023/01/29 04:53:09;;;;;;;0.70;0.70;;;3.50;99.90;;;;;;4814730;29;20072;-95
2023/01/29 04:59:45;;;;;;;0.70;0.70;;;3.50;99.90;;;;;;4718313;29;20881;-94
2023/01/29 05:02:22;;;;;;;0.70;0.70;;;3.60;99.90;;;;;;4727886;30;20063;-93
2023/01/29 05:05:12;;;;;;;0.70;0.70;;;3.60;99.90;;;;;;4726569;30;20174;-94
2023/01/29 05:07:48;;;;;;;0.70;0.70;;;3.60;99.90;;;;;;4707970;30;20504;-94
2023/01/29 05:10:40;;;;;;;0.70;0.70;;;3.60;99.90;;;;;;4738723;30;20051;-93
2023/01/29 05:13:30;;;;;;;0.70;0.70;;;3.60;99.90;;;;;;4763452;29;20048;-94
2023/01/29 05:16:27;;;;;;;0.75;0.75;;;3.60;99.90;;;;;;4811081;29;20754;-95
2023/01/29 05:20:03;;;;;;;0.80;0.80;;;3.60;99.90;;;;;;4806305;29;20829;-94
2023/01/29 05:22:40;;;;;;;0.80;0.80;;;3.70;99.90;;;;;;4726547;29;20650;-96
2023/01/29 05:25:43;;;;;;;;;;;;;;;;;;;;;
2023/01/29 05:28:32;;;;;;;0.75;0.75;;;3.70;99.90;;;;;;4824853;29;20052;-93
2023/01/29 05:31:15;;;;;;;0.80;0.80;;;3.70;99.90;;;;;;4824888;29;20051;-93
2023/01/29 05:33:44;;;;;;;0.70;0.70;;;3.70;99.90;;;;;;4817732;29;20068;-94
2023/01/29 05:36:48;;;;;;;0.77;0.77;;;3.70;99.90;;;;;;4803684;29;20529;-94
2023/01/29 05:39:18;;;;;;;0.75;0.75;;;3.60;99.90;;;;;;4774772;29;20060;-95
2023/01/29 05:41:47;;;;;;;0.70;0.70;;;3.60;99.90;;;;;;4792142;29;20421;-93
2023/01/29 05:44:31;;;;;;;0.80;0.80;;;3.60;99.90;;;;;;4790211;29;20052;-94
2023/01/29 05:47:06;;;;;;;0.70;0.70;;;3.60;99.90;;;;;;4780983;29;21044;-95
2023/01/29 05:50:05;;;;;;;0.73;0.73;;;3.60;99.90;;;;;;4810215;29;20599;-95
2023/01/29 05:52:42;;;;;;;0.80;0.80;;;3.60;99.90;;;;;;4796198;29;20320;-94
2023/01/29 05:55:09;;;;;;;0.80;0.80;;;3.60;99.90;;;;;;4798646;29;20791;-93
2023/01/29 05:57:45;;;;;;;0.80;0.80;;;3.60;99.90;;;;;;4799425;29;20186;-93
2023/01/29 06:00:14;;;;;;;0.80;0.80;;;3.60;99.90;;;;;;4802767;29;20064;-90
2023/01/29 06:02:53;;;;;;;0.70;0.70;;;3.60;99.90;;;;;;4806029;29;20583;-94
2023/01/29 06:05:19;;;;;;;0.75;0.75;;;3.60;99.90;;;;;;4790118;29;20535;-93
2023/01/29 06:07:45;;;;;;;3.20;3.10;;;3.60;99.90;;;;;;4783099;29;20045;-92
2023/01/29 06:10:20;;;;;;;0.80;0.80;;;3.60;99.90;;;;;;4801508;29;20060;-95
2023/01/29 06:12:54;;;;;;;0.80;0.80;;;3.60;99.90;;;;;;4785849;29;20049;-92
2023/01/29 06:15:20;;;;;;;0.80;0.80;;;3.60;99.90;;;;;;4814826;29;20048;-94
2023/01/29 06:18:09;;;;;;;0.80;0.80;;;3.60;99.90;;;;;;4803482;29;20047;-94
2023/01/29 06:20:36;;;;;;;0.70;0.70;;;3.50;99.90;;;;;;4801051;29;20041;-91
2023/01/29 06:23:10;;;;;;;0.80;0.80;;;3.50;99.90;;;;;;4769717;29;20056;-93
2023/01/29 06:25:36;;;;;;;0.80;0.80;;;3.50;99.90;;;;;;4765128;29;20041;-93
2023/01/29 06:28:07;;;;;;;0.80;0.80;;;3.50;99.90;;;;;;4806031;29;20141;-93
2023/01/29 06:30:36;;;;;;;0.70;0.70;;;3.50;99.90;;;;;;4770309;29;20056;-93
2023/01/29 06:33:05;;;;;;;0.70;0.70;;;3.50;99.90;;;;;;4767366;29;20059;-94
2023/01/29 06:35:34;;;;;;;0.80;0.80;;;3.50;99.90;;;;;;4796511;29;20041;-93
2023/01/29 06:38:00;;;;;;;0.80;0.80;;;3.50;99.90;;;;;;4794412;29;20092;-93
2023/01/29 06:40:37;;;;;;;0.80;0.80;;;3.50;99.90;;;;;;4782924;29;20147;-95
2023/01/29 06:43:06;;;;;;;0.80;0.80;;;3.50;99.90;;;;;;4799086;29;20643;-92
2023/01/29 06:45:44;;;;;;;0.70;0.70;;;3.50;99.90;;;;;;4782386;29;20057;-93
2023/01/29 06:48:13;;;;;;;0.80;0.80;;;3.50;99.90;;;;;;4791302;29;20606;-92
2023/01/29 06:50:45;;;;;;;0.80;0.80;;;3.50;99.90;;;;;;4781680;29;20044;-92
2023/01/29 06:53:12;;;;;;;0.80;0.80;;;3.50;99.90;;;;;;4794216;29;20048;-94
2023/01/29 06:55:52;;;;;;;0.80;0.80;;;3.50;99.90;;;;;;4779803;29;20474;-93
2023/01/29 06:58:22;;;;;;;0.70;0.70;;;3.50;99.90;;;;;;4802629;29;20555;-94
2023/01/29 07:00:48;;;;;;;0.80;0.80;;;3.40;99.90;;;;;;4801017;29;20084;-92
2023/01/29 07:03:14;;;;;;;0.80;0.80;;;3.50;99.90;;;;;;4801541;29;20495;-92
2023/01/29 07:05:40;;;;;;;0.70;0.70;;;3.50;99.90;;;;;;4802308;29;20067;-92
2023/01/29 07:08:09;;;;;;;0.80;0.80;;;3.50;99.90;;;;;;4808775;29;20052;-90
2023/01/29 07:10:35;;;;;;;0.80;0.80;;;3.40;99.90;;;;;;4793216;29;20135;-92
2023/01/29 07:13:01;;;;;;;0.70;0.70;;;3.50;99.90;;;;;;4811535;29;20434;-90
2023/01/29 07:15:30;;;;;;;0.70;0.70;;;3.50;99.90;;;;;;4787010;29;20418;-88
2023/01/29 07:18:01;;;;;;;0.70;0.70;;;3.50;99.90;;;;;;4793232;29;20041;-90
2023/01/29 07:20:28;;;;;;;0.75;0.75;;;3.40;99.90;;;;;;4788823;29;20059;-91
2023/01/29 07:22:57;;;;;;;1.10;1.10;;;3.40;99.90;;;;;;4796427;29;20152;-91
2023/01/29 07:25:24;;;;;;;0.80;0.80;;;3.50;99.90;;;;;;4789616;29;20045;-88
2023/01/29 07:27:56;;;;;;;0.80;0.80;;;3.50;99.90;;;;;;4784372;29;20076;-93
2023/01/29 07:30:22;;;;;;;0.70;0.70;;;3.40;99.90;;;;;;4806894;29;20871;-90
2023/01/29 07:32:47;;;;;;;0.70;0.70;;;3.40;99.90;;;;;;4806485;29;20047;-90
2023/01/29 07:35:17;;;;;;;0.73;0.73;;;3.40;99.90;;;;;;4796559;29;20663;-93
2023/01/29 07:37:49;;;;;;;0.70;0.70;;;3.40;99.90;;;;;;4802929;29;20810;-92
2023/01/29 07:40:15;;;;;;;0.70;0.70;;;3.50;99.90;;;;;;4791916;29;20140;-92
2023/01/29 07:42:43;;;;;;;0.80;0.80;;;3.40;99.90;;;;;;4806259;29;20049;-92
2023/01/29 07:45:12;;;;;;;0.70;0.70;;;3.40;99.90;;;;;;4804493;29;20056;-92
2023/01/29 07:47:59;;;;;;;0.70;0.70;;;3.50;99.90;;;;;;4808102;29;20426;-93
2023/01/29 07:50:26;;;;;;;0.70;0.70;;;3.50;99.90;;;;;;4807429;29;20048;-93
2023/01/29 07:53:07;;;;;;;0.70;0.70;;;3.50;99.90;;;;;;4814812;29;20902;-93
2023/01/29 07:55:43;;;;;;;0.80;0.80;;;3.40;99.90;;;;;;4789178;29;20086;-92
2023/01/29 07:58:10;;;;;;;0.80;0.80;;;3.50;99.90;;;;;;4807783;29;20318;-92
2023/01/29 08:00:36;;;;;;;0.70;0.70;;;3.50;99.90;;;;;;4809958;29;20310;-92
2023/01/29 08:03:22;;;;;;;0.70;0.70;;;3.50;99.90;;;;;;4803324;29;20103;-90
2023/01/29 08:05:51;;;;;;;0.70;0.70;;;3.50;99.90;;;;;;4782256;29;20080;-92
2023/01/29 08:08:46;;;;;;;0.70;0.70;;;3.50;99.90;;;;;;4793971;29;20044;-94
2023/01/29 08:11:14;;;;;;;;;;;3.50;99.90;;;;;;4820053;29;20576;-93
2023/01/29 08:13:40;;;;;;;0.70;0.70;;;3.50;99.90;;;;;;4801372;29;19934;-92
2023/01/29 08:16:08;;;;;;;0.80;0.80;;;3.50;99.90;;;;;;4786026;29;20048;-92
2023/01/29 08:18:37;;;;;;;0.80;0.80;;;3.40;99.90;;;;;;4799701;29;20063;-92
2023/01/29 08:21:22;;;;;;;0.70;0.70;;;3.40;99.90;;;;;;4805037;29;20564;-94
2023/01/29 08:23:48;;;;;;;0.80;0.80;;;3.50;99.90;;;;;;4807483;29;20821;-90
2023/01/29 08:26:16;;;;;;;0.90;0.82;;;3.50;99.90;;;;;;4788695;29;20049;-93
2023/01/29 08:28:42;;;;;;;0.80;0.80;;;3.50;99.90;;;;;;4789601;29;20496;-91
2023/01/29 08:31:46;;;;;;;;;;;;;;;;;;;;;
2023/01/29 08:34:10;;;;;;;0.70;0.70;;;3.60;99.90;;;;;;4801726;29;20060;-93
2023/01/29 08:36:46;;;;;;;0.80;0.80;;;3.60;99.90;;;;;;4773293;29;20045;-92
2023/01/29 08:39:12;;;;;;;0.80;0.80;;;3.50;99.90;;;;;;4798295;29;20044;-93
2023/01/29 08:41:47;;;;;;;0.70;0.70;;;3.60;99.90;;;;;;4776921;29;20049;-92
2023/01/29 08:44:16;;;;;;;0.70;0.70;;;3.60;99.90;;;;;;4793875;29;20049;-89
2023/01/29 08:46:42;;;;;;;0.70;0.70;;;3.50;99.90;;;;;;4821214;29;20856;-90
2023/01/29 08:49:11;;;;;;;0.70;0.70;;;3.60;99.90;;;;;;4775144;29;20056;-92
2023/01/29 08:51:37;;;;;;;0.70;0.70;;;3.60;99.90;;;;;;4828007;29;20578;-92
2023/01/29 08:54:05;;;;;;;0.70;0.70;;;3.60;99.90;;;;;;4804178;29;20041;-93
2023/01/29 08:56:41;;;;;;;0.80;0.80;;;3.60;99.90;;;;;;4796748;29;20353;-91
2023/01/29 08:59:07;;;;;;;0.70;0.70;;;3.70;99.90;;;;;;4781295;29;20052;-92
2023/01/29 09:01:36;;;;;;;0.70;0.70;;;3.70;99.90;;;;;;4800674;29;20044;-93
2023/01/29 09:04:18;;;;;;;0.70;0.70;;;3.70;99.90;;;;;;4797019;29;20045;-93
2023/01/29 09:06:52;;;;;;;0.70;0.70;;;3.70;99.90;;;;;;4798960;29;20179;-93
2023/01/29 09:12:37;;;;;;;0.70;0.70;;;3.70;99.90;;;;;;4819212;29;20567;-90
2023/01/29 09:15:06;;;;;;;0.80;0.80;;;3.70;99.90;;;;;;4793963;29;20922;-92
2023/01/29 09:17:32;;;;;;;0.70;0.70;;;3.70;99.90;;;;;;4799259;29;20143;-89
2023/01/29 09:20:00;;;;;;;0.73;0.73;;;3.70;99.90;;;;;;4792401;29;20530;-93
2023/01/29 09:22:26;;;;;;;0.70;0.70;;;3.70;99.90;;;;;;4786473;29;20145;-93
2023/01/29 09:24:52;;;;;;;0.70;0.70;;;3.70;99.90;;;;;;4754093;29;20053;-89
2023/01/29 09:27:21;;;;;;;0.70;0.70;;;3.70;99.90;;;;;;4788992;29;20054;-91
2023/01/29 09:29:49;;;;;;;0.70;0.70;;;3.70;99.90;;;;;;4791801;29;20049;-90
2023/01/29 09:33:26;;;;;;;0.70;0.70;;;3.70;99.90;;;;;;4776673;29;20507;-92
2023/01/29 09:35:54;;;;;;;0.80;0.80;;;3.70;99.90;;;;;;4789404;29;20064;-94
2023/01/29 09:38:23;;;;;;;0.70;0.70;;;3.80;99.90;;;;;;4767837;29;20406;-92
2023/01/29 09:41:15;;;;;;;0.80;0.80;;;3.90;99.90;;;;;;4782445;29;20881;-92
2023/01/29 09:43:51;;;;;;;0.75;0.75;;;3.80;99.90;;;;;;4784728;29;20121;-90
2023/01/29 09:46:35;;;;;;;0.75;0.75;;;3.90;99.90;;;;;;4807861;29;20105;-94
2023/01/29 09:49:36;;;;;;;0.70;0.70;;;3.90;99.90;;;;;;4790846;29;20049;-90
2023/01/29 09:52:09;;;;;;;0.70;0.70;;;3.90;99.90;;;;;;4785972;29;20060;-90
2023/01/29 09:54:51;;;;;;;0.70;0.70;;;4.00;99.90;;;;;;4787648;29;20434;-92
2023/01/29 09:58:02;;;;;;;0.70;0.70;;;4.00;99.90;;;;;;4796636;29;20587;-94
2023/01/29 10:00:49;;;;;;;0.80;0.80;;;4.00;99.90;;;;;;4793111;29;20753;-94
2023/01/29 10:04:21;;;;;;;0.70;0.70;;;4.10;99.90;;;;;;4807061;29;20168;-92
2023/01/29 10:07:23;;;;;;;0.70;0.70;;;4.20;99.90;;;;;;4814325;29;20280;-89
2023/01/29 10:10:19;;;;;;;0.70;0.70;;;4.20;99.90;;;;;;4802494;29;20057;-90
2023/01/29 10:12:52;;;;;;;0.80;0.80;;;4.20;99.90;;;;;;4783425;29;20287;-91
2023/01/29 10:15:43;;;;;;;0.70;0.70;;;4.30;99.90;;;;;;4770263;29;20506;-89
2023/01/29 10:18:40;;;;;;;0.65;0.65;;;4.30;99.90;;;;;;4780888;29;20052;-91
2023/01/29 10:21:28;;;;;;;0.70;0.70;;;4.40;99.90;;;;;;4799067;29;20612;-92
2023/01/29 10:27:39;;;;;;;0.70;0.70;;;4.50;99.90;;;;;;4805329;29;20049;-91
2023/01/29 10:30:21;;;;;;;0.70;0.70;;;4.70;99.90;;;;;;4817491;29;20044;-89
2023/01/29 10:32:49;;;;;;;0.70;0.70;;;4.70;99.90;;;;;;4783951;29;20295;-89
2023/01/29 10:35:48;;;;;;;0.70;0.70;;;4.80;99.90;;;;;;4766383;29;20132;-93
2023/01/29 10:38:54;;;;;;;0.70;0.70;;;4.90;99.90;;;;;;4785069;29;20415;-88
2023/01/29 10:42:08;;;;;;;0.70;0.70;;;4.90;99.90;;;;;;4806334;29;20056;-93
2023/01/29 10:44:40;;;;;;;0.70;0.70;;;4.90;99.90;;;;;;4807964;29;20799;-91
2023/01/29 10:47:44;;;;;;;0.70;0.70;;;4.90;99.90;;;;;;4824536;29;20065;-91
2023/01/29 10:50:38;;;;;;;0.70;0.70;;;5.00;99.90;;;;;;4798917;29;20136;-91
2023/01/29 10:53:21;;;;;;;0.70;0.70;;;5.00;99.90;;;;;;4807264;29;20060;-89
2023/01/29 10:56:36;;;;;;;0.70;0.70;;;5.00;99.90;;;;;;4810171;29;20089;-95
2023/01/29 10:59:56;;;;;;;0.70;0.70;;;5.00;99.90;;;;;;4820647;29;20526;-94
2023/01/29 11:02:22;;;;;;;0.70;0.70;;;5.10;99.90;;;;;;4788966;29;20586;-90
2023/01/29 11:04:48;;;;;;;0.70;0.70;;;5.00;99.90;;;;;;4767902;29;20778;-89
2023/01/29 11:07:18;;;;;;;0.70;0.70;;;5.00;99.90;;;;;;4786769;29;20479;-87
2023/01/29 11:10:04;;;;;;;0.70;0.70;;;5.00;99.90;;;;;;4790930;29;20382;-89
2023/01/29 11:12:32;;;;;;;0.70;0.70;;;5.00;99.90;;;;;;4812771;29;20559;-89
2023/01/29 11:15:30;;;;;;;0.80;0.80;;;5.00;99.90;;;;;;4779067;29;20069;-92
2023/01/29 11:18:15;;;;;;;0.70;0.70;;;5.00;99.90;;;;;;4795226;29;20060;-92
2023/01/29 11:20:45;;;;;;;0.70;0.70;;;5.00;99.90;;;;;;4799818;29;20063;-87
2023/01/29 11:23:32;;;;;;;0.60;0.60;;;5.10;99.90;;;;;;4780992;29;20964;-89
2023/01/29 11:26:10;;;;;;;0.65;0.65;;;5.10;99.90;;;;;;4801444;29;20507;-92
2023/01/29 11:28:44;;;;;;;0.60;0.60;;;5.10;99.90;;;;;;4792406;29;20380;-91
2023/01/29 11:31:32;;;;;;;;;;;5.20;99.90;;;;;;4773761;29;20081;-88
2023/01/29 11:34:28;;;;;;;0.70;0.70;;;5.10;99.90;;;;;;4786146;29;19931;-88
2023/01/29 11:37:02;;;;;;;0.70;0.70;;;5.20;99.90;;;;;;4797344;29;20292;-92
2023/01/29 11:39:32;;;;;;;0.70;0.70;;;5.10;99.90;;;;;;4787396;29;20453;-91
2023/01/29 11:42:07;;;;;;;0.70;0.70;;;5.10;99.90;;;;;;4791547;29;20060;-93
2023/01/29 11:44:39;;;;;;;0.80;0.80;;;5.20;99.90;;;;;;4793007;29;20438;-90
2023/01/29 11:47:28;;;;;;;0.70;0.70;;;5.20;99.90;;;;;;4792966;29;20429;-92
2023/01/29 11:50:01;;;;;;;0.70;0.70;;;5.00;99.90;;;;;;4782919;29;20048;-92
2023/01/29 11:52:41;;;;;;;0.70;0.70;;;5.00;99.90;;;;;;4785291;29;20050;-89
2023/01/29 11:55:30;;;;;;;0.70;0.70;;;4.90;99.90;;;;;;4783598;29;20067;-94
2023/01/29 11:58:13;;;;;;;0.73;0.73;;;4.90;99.90;;;;;;4793600;29;20053;-87
2023/01/29 12:00:48;;;;;;;0.70;0.70;;;4.80;99.90;;;;;;4801239;29;20817;-90
2023/01/29 12:03:28;;;;;;;0.70;0.70;;;4.70;99.90;;;;;;4816302;29;20068;-87
2023/01/29 12:06:07;;;;;;;0.70;0.70;;;4.70;99.90;;;;;;4796598;29;20354;-87
2023/01/29 12:08:40;;;;;;;0.70;0.70;;;4.70;99.90;;;;;;4783441;29;20056;-90
2023/01/29 12:11:22;;;;;;;0.80;0.80;;;4.70;99.90;;;;;;4764927;29;20096;-92
2023/01/29 12:13:57;;;;;;;0.70;0.70;;;4.70;99.90;;;;;;4798626;29;20254;-92
2023/01/29 12:16:37;;;;;;;0.70;0.70;;;4.70;99.90;;;;;;4791991;29;20329;-89
2023/01/29 12:19:27;;;;;;;0.80;0.80;;;4.70;99.90;;;;;;4803989;29;20370;-90
2023/01/29 12:22:23;;;;;;;0.70;0.70;;;4.70;99.90;;;;;;4802367;29;20390;-89
2023/01/29 12:25:35;;;;;;;0.70;0.70;;;4.60;99.90;;;;;;4798765;29;20414;-94
2023/01/29 12:28:20;;;;;;;0.70;0.70;;;4.70;99.90;;;;;;4785451;29;20803;-90
2023/01/29 12:31:10;;;;;;;0.70;0.70;;;4.60;99.90;;;;;;4802898;29;20136;-92
2023/01/29 12:34:01;;;;;;;0.70;0.70;;;4.70;99.90;;;;;;4809877;29;20052;-91
2023/01/29 12:36:38;;;;;;;0.80;0.80;;;4.80;99.90;;;;;;4788030;29;20591;-91
2023/01/29 12:39:04;;;;;;;0.70;0.70;;;4.80;99.90;;;;;;4796908;29;20320;-90
2023/01/29 12:41:57;;;;;;;0.70;0.70;;;4.90;99.90;;;;;;4760095;29;20057;-87
2023/01/29 12:44:25;;;;;;;0.70;0.70;;;4.80;99.90;;;;;;4730822;29;20070;-91
2023/01/29 12:46:58;;;;;;;0.70;0.70;;;4.80;99.90;;;;;;4779742;29;20061;-91
2023/01/29 12:49:30;;;;;;;0.80;0.80;;;4.80;99.90;;;;;;4787543;29;20077;-88
2023/01/29 12:52:21;;;;;;;0.70;0.70;;;4.80;99.90;;;;;;4830391;29;20057;-87
2023/01/29 12:55:23;;;;;;;0.70;0.70;;;4.80;99.90;;;;;;4809651;29;20205;-87
2023/01/29 12:58:04;;;;;;;0.70;0.70;;;4.90;99.90;;;;;;4789461;29;20809;-90
2023/01/29 13:00:37;;;;;;;0.70;0.70;;;4.90;99.90;;;;;;4785652;29;20131;-90
2023/01/29 13:03:16;;;;;;;0.80;0.80;;;4.90;99.90;;;;;;4801749;29;20589;-92
2023/01/29 13:05:47;;;;;;;0.77;0.77;;;5.00;99.90;;;;;;4802773;29;20053;-88
2023/01/29 13:08:39;;;;;;;0.70;0.70;;;4.90;99.90;;;;;;4805707;29;20048;-90
2023/01/29 13:11:25;;;;;;;0.70;0.70;;;4.90;99.90;;;;;;4792132;29;20081;-88
2023/01/29 13:13:54;;;;;;;0.75;0.75;;;4.90;99.90;;;;;;4778355;29;20063;-87
2023/01/29 13:16:24;;;;;;;0.70;0.70;;;4.80;99.90;;;;;;4797006;29;20545;-90
2023/01/29 13:19:25;;;;;;;;;;;;;;;;;;;;;
2023/01/29 13:21:58;;;;;;;0.70;0.70;;;4.80;99.90;;;;;;4810954;29;20124;-88
2023/01/29 13:24:32;;;;;;;0.70;0.70;;;4.80;99.90;;;;;;4783910;29;20048;-87
2023/01/29 13:27:01;;;;;;;0.80;0.80;;;4.70;99.90;;;;;;4791116;29;20629;-89
2023/01/29 13:29:30;;;;;;;0.70;0.70;;;4.50;99.90;;;;;;4774329;29;20049;-92
2023/01/29 13:32:11;;;;;;;0.70;0.70;;;4.60;99.90;;;;;;4774328;29;20056;-90
2023/01/29 13:34:46;;;;;;;0.73;0.73;;;4.50;99.90;;;;;;4793003;29;20045;-93
2023/01/29 13:37:43;;;;;;;0.70;0.70;;;4.50;99.90;;;;;;4787705;29;20431;-93
2023/01/29 13:40:20;;;;;;;0.80;0.80;;;4.50;99.90;;;;;;4790219;29;21025;-91
2023/01/29 13:42:53;;;;;;;0.70;0.70;;;4.30;99.90;;;;;;4799389;29;20112;-92
2023/01/29 13:45:50;;;;;;;0.70;0.70;;;4.30;99.90;;;;;;4770321;29;20052;-89
2023/01/29 13:48:45;;;;;;;0.70;0.70;;;4.20;99.90;;;;;;4800818;29;20052;-91
2023/01/29 13:51:29;;;;;;;0.70;0.70;;;4.30;99.90;;;;;;4779990;29;20075;-93
2023/01/29 13:54:10;;;;;;;0.70;0.70;;;4.30;99.90;;;;;;4794813;29;20511;-95
2023/01/29 13:57:29;;;;;;;0.80;0.80;;;4.30;99.90;;;;;;4787173;29;20213;-94
2023/01/29 14:00:21;;;;;;;0.70;0.70;;;4.30;99.90;;;;;;4799971;29;20210;-94
2023/01/29 14:03:10;;;;;;;0.70;0.70;;;4.20;99.90;;;;;;4796919;29;20071;-91
2023/01/29 14:06:02;;;;;;;0.70;0.70;;;4.20;99.90;;;;;;4784765;29;20049;-92
2023/01/29 14:08:38;;;;;;;0.70;0.70;;;4.30;99.90;;;;;;4795816;29;20412;-91
2023/01/29 14:11:14;;;;;;;0.70;0.70;;;4.30;99.90;;;;;;4795581;29;20051;-89
2023/01/29 14:14:00;;;;;;;0.70;0.70;;;4.40;99.90;;;;;;4801636;29;20053;-93
2023/01/29 14:16:34;;;;;;;0.70;0.70;;;4.50;99.90;;;;;;4801066;29;20167;-93
2023/01/29 14:19:19;;;;;;;0.70;0.70;;;4.60;99.90;;;;;;4804829;29;20531;-92
2023/01/29 14:21:52;;;;;;;0.70;0.70;;;4.60;99.90;;;;;;4774002;29;20939;-90
2023/01/29 14:24:23;;;;;;;0.70;0.70;;;4.70;99.90;;;;;;4785745;29;20061;-92
2023/01/29 14:26:56;;;;;;;0.70;0.70;;;4.50;99.90;;;;;;4801941;29;20052;-93
2023/01/29 14:29:33;;;;;;;0.70;0.70;;;4.50;99.90;;;;;;4797830;29;20052;-91
2023/01/29 14:32:05;;;;;;;0.70;0.70;;;4.70;99.90;;;;;;4792986;29;20087;-94
2023/01/29 14:34:55;;;;;;;0.70;0.70;;;4.60;99.90;;;;;;4815860;29;20438;-92
2023/01/29 14:37:47;;;;;;;0.70;0.70;;;4.60;99.90;;;;;;4798785;29;20545;-93
2023/01/29 14:40:26;;;;;;;0.80;0.80;;;4.70;99.90;;;;;;4807291;29;20456;-93
2023/01/29 14:43:04;;;;;;;9.82;9.27;;;4.70;99.90;;;;;;4792751;29;20044;-93
2023/01/29 14:45:48;;;;;;;0.70;0.70;;;4.60;99.90;;;;;;4804103;29;20155;-93
2023/01/29 14:48:33;;;;;;;;;;;4.60;99.90;;;;;;4796159;29;20048;-91
2023/01/29 14:51:09;;;;;;;0.80;0.80;;;4.60;99.90;;;;;;4797308;29;19927;-92
2023/01/29 14:53:52;;;;;;;0.70;0.70;;;4.60;99.90;;;;;;4789837;29;20891;-89
2023/01/29 14:56:36;;;;;;;0.70;0.70;;;4.50;99.90;;;;;;4784796;29;20061;-88
2023/01/29 14:59:25;;;;;;;;;;;4.50;99.90;;;;;;4789395;29;20471;-92
2023/01/29 15:02:23;;;;;;;0.65;0.65;;;4.60;99.90;;;;;;4795857;29;19939;-91
2023/01/29 15:05:04;;;;;;;0.70;0.70;;;4.60;99.90;;;;;;4775654;29;20061;-95
2023/01/29 15:07:47;;;;;;;0.70;0.70;;;4.50;99.90;;;;;;4803334;29;20541;-92
2023/01/29 15:10:38;;;;;;;0.70;0.70;;;4.50;99.90;;;;;;4818604;29;20044;-92
2023/01/29 15:13:19;;;;;;;0.70;0.70;;;4.50;99.90;;;;;;4799526;29;20053;-92
2023/01/29 15:16:08;;;;;;;0.70;0.70;;;4.40;99.90;;;;;;4785330;29;20128;-92
2023/01/29 15:18:46;;;;;;;0.80;0.80;;;4.50;99.90;;;;;;4791406;29;20144;-93
2023/01/29 15:21:14;;;;;;;0.70;0.70;;;4.40;99.90;;;;;;4810070;29;20441;-91
2023/01/29 15:23:42;;;;;;;0.80;0.80;;;4.40;99.90;;;;;;4789384;29;20057;-93
2023/01/29 15:26:23;;;;;;;0.70;0.70;;;4.40;99.90;;;;;;4799264;29;20831;-91
2023/01/29 15:29:02;;;;;;;0.70;0.70;;;4.40;99.90;;;;;;4772820;29;20321;-91
2023/01/29 15:31:31;;;;;;;0.70;0.70;;;4.40;99.90;;;;;;4790965;29;20053;-89
2023/01/29 15:34:10;;;;;;;0.70;0.70;;;4.40;99.90;;;;;;4774716;29;20100;-95
2023/01/29 15:36:39;;;;;;;0.70;0.70;;;4.40;99.90;;;;;;4771801;29;20342;-92
2023/01/29 15:39:11;;;;;;;0.70;0.70;;;4.40;99.90;;;;;;4797704;29;20521;-95
2023/01/29 15:41:40;;;;;;;0.70;0.70;;;4.40;99.90;;;;;;4792939;29;20053;-92
2023/01/29 15:44:15;;;;;;;0.70;0.70;;;4.40;99.90;;;;;;4767326;29;20048;-91
2023/01/29 15:46:49;;;;;;;0.70;0.70;;;4.40;99.90;;;;;;4781264;29;20119;-89
2023/01/29 15:49:38;;;;;;;0.80;0.80;;;4.40;99.90;;;;;;4796714;29;20041;-93
2023/01/29 15:52:26;;;;;;;0.70;0.70;;;4.40;99.90;;;;;;4789062;29;20515;-94
2023/01/29 15:55:02;;;;;;;0.70;0.70;;;4.40;99.90;;;;;;4800723;29;20057;-94
2023/01/29 15:57:36;;;;;;;0.70;0.70;;;4.40;99.90;;;;;;4786535;29;20220;-90
2023/01/29 16:00:03;;;;;;;0.70;0.70;;;4.40;99.90;;;;;;4807510;29;20134;-93
2023/01/29 16:02:43;;;;;;;0.70;0.70;;;4.40;99.90;;;;;;4795473;29;20502;-93
2023/01/29 16:05:21;;;;;;;0.70;0.70;;;4.40;99.90;;;;;;4806936;29;20218;-92
2023/01/29 16:07:49;;;;;;;0.70;0.70;;;4.30;99.90;;;;;;4789962;29;20108;-93
2023/01/29 16:10:37;;;;;;;0.70;0.70;;;4.40;99.90;;;;;;4784577;29;20491;-93
2023/01/29 16:13:36;;;;;;;0.70;0.70;;;4.40;99.90;;;;;;4766156;29;20061;-93
2023/01/29 16:16:26;;;;;;;0.70;0.70;;;4.30;99.90;;;;;;4791320;29;20061;-92
2023/01/29 16:18:52;;;;;;;0.70;0.70;;;4.30;99.90;;;;;;4796313;29;20771;-89
2023/01/29 16:21:29;;;;;;;0.70;0.70;;;4.30;99.90;;;;;;4778371;29;20048;-92